createdAt,value
2022-12-16T00:03:33.641Z,99
2022-12-16T00:13:33.483Z,99
2022-12-16T00:23:33.417Z,99
2022-12-16T00:33:33.340Z,99
2022-12-16T00:43:33.415Z,99
2022-12-16T00:53:33.342Z,99
2022-12-16T01:03:32.905Z,99
2022-12-16T01:13:32.919Z,84
2022-12-16T01:23:33.031Z,99
2022-12-16T01:33:32.979Z,84
2022-12-16T01:43:32.696Z,33
2022-12-16T01:53:32.784Z,34
2022-12-16T02:03:32.620Z,71
2022-12-16T02:13:32.775Z,99
2022-12-16T02:23:32.517Z,99
2022-12-16T02:33:32.481Z,99
2022-12-16T02:44:03.159Z,93
2022-12-16T02:53:32.232Z,85
2022-12-16T03:03:32.272Z,89
2022-12-16T03:13:32.058Z,75
2022-12-16T03:23:32.033Z,72
2022-12-16T03:33:32.069Z,80
2022-12-16T03:43:31.818Z,88
2022-12-16T03:53:31.869Z,96
2022-12-16T04:03:31.742Z,92
2022-12-16T04:13:31.801Z,99
2022-12-16T04:23:31.522Z,99
2022-12-16T04:33:31.507Z,93
2022-12-16T04:43:31.644Z,95
2022-12-16T04:53:31.515Z,99
2022-12-16T05:03:31.435Z,99
2022-12-16T05:13:31.292Z,99
2022-12-16T05:23:31.269Z,99
2022-12-16T05:33:31.157Z,99
2022-12-16T05:43:31.074Z,99
2022-12-16T05:53:31.024Z,99
2022-12-16T06:03:30.851Z,99
2022-12-16T06:13:33.321Z,99
2022-12-16T06:23:30.370Z,99
2022-12-16T06:33:30.717Z,99
2022-12-16T06:43:30.604Z,99
2022-12-16T06:53:30.682Z,1
2022-12-16T07:03:35.402Z,1
2022-12-16T07:13:30.348Z,1
2022-12-16T07:23:29.968Z,1
2022-12-16T07:33:30.281Z,1
2022-12-16T07:43:30.037Z,1
2022-12-16T07:53:31.534Z,1
2022-12-16T08:03:29.793Z,1
2022-12-16T08:13:29.731Z,1
2022-12-16T08:23:30.006Z,1
2022-12-16T08:33:29.496Z,1
2022-12-16T08:43:29.604Z,1
2022-12-16T08:53:29.328Z,1
2022-12-16T09:03:29.373Z,1
2022-12-16T09:13:29.349Z,1
2022-12-16T09:23:29.156Z,1
2022-12-16T09:33:29.031Z,1
2022-12-16T09:43:28.993Z,99
2022-12-16T09:53:28.914Z,99
2022-12-16T10:03:28.974Z,99
2022-12-16T10:13:29.134Z,99
2022-12-16T10:23:28.837Z,99
2022-12-16T10:33:28.694Z,99
2022-12-16T10:43:28.561Z,99
2022-12-16T10:53:28.579Z,99
2022-12-16T11:03:28.526Z,99
2022-12-16T11:13:28.328Z,99
2022-12-16T11:23:28.288Z,99
2022-12-16T11:33:28.211Z,99
2022-12-16T11:43:29.000Z,99
2022-12-16T11:53:28.349Z,99
2022-12-16T12:03:28.142Z,99
2022-12-16T12:13:28.756Z,99
2022-12-16T12:23:28.053Z,99
2022-12-16T12:33:27.898Z,99
2022-12-16T12:43:27.684Z,99
2022-12-16T12:53:27.605Z,99
2022-12-16T13:03:27.579Z,99
2022-12-16T13:13:27.464Z,99
2022-12-16T13:23:27.404Z,99
2022-12-16T13:33:27.327Z,99
2022-12-16T13:43:27.284Z,99
2022-12-16T13:53:27.212Z,99
2022-12-16T14:03:27.222Z,99
2022-12-16T14:13:27.073Z,99
2022-12-16T14:23:55.315Z,99
2022-12-16T14:33:26.898Z,99
2022-12-16T14:43:26.826Z,99
2022-12-16T14:53:26.778Z,99
2022-12-16T15:03:27.113Z,1
2022-12-16T15:13:26.641Z,1
2022-12-16T15:23:26.554Z,1
2022-12-16T15:33:26.476Z,1
2022-12-16T15:43:26.434Z,1
2022-12-16T15:53:26.369Z,1
2022-12-16T16:03:26.371Z,1
2022-12-16T16:13:26.185Z,1
2022-12-16T16:23:26.113Z,1
2022-12-16T16:33:26.178Z,1
2022-12-16T16:43:26.006Z,1
2022-12-16T16:53:25.894Z,1
2022-12-16T17:03:26.102Z,1
2022-12-16T17:13:25.772Z,1
2022-12-16T17:23:25.781Z,1
2022-12-16T17:33:25.606Z,1
2022-12-16T17:43:25.544Z,1
2022-12-16T17:53:25.662Z,1
2022-12-16T18:03:25.666Z,1
2022-12-16T18:13:25.332Z,1
2022-12-16T18:23:25.296Z,1
2022-12-16T18:33:25.173Z,1
2022-12-16T18:43:25.113Z,1
2022-12-16T18:53:25.061Z,1
2022-12-16T19:03:25.019Z,1
2022-12-16T19:13:24.970Z,1
2022-12-16T19:23:24.857Z,1
2022-12-16T19:33:24.795Z,1
2022-12-16T19:43:24.738Z,99
2022-12-16T19:53:24.648Z,1
2022-12-16T19:56:56.550Z,1
2022-12-16T20:06:56.198Z,1
2022-12-16T20:16:56.682Z,1
2022-12-16T20:26:55.996Z,1
2022-12-16T20:36:56.172Z,1
2022-12-16T20:46:56.201Z,1
2022-12-16T20:56:55.827Z,1
2022-12-16T21:06:56.161Z,1
2022-12-16T21:16:55.961Z,1
2022-12-16T21:26:56.266Z,1
2022-12-16T21:36:55.978Z,1
2022-12-16T21:46:56.577Z,1
2022-12-16T21:56:56.446Z,1
2022-12-16T22:06:56.281Z,1
2022-12-16T22:16:55.474Z,1
2022-12-16T22:26:56.413Z,1
2022-12-16T22:36:56.629Z,1
2022-12-16T22:46:56.076Z,1
2022-12-16T22:56:56.340Z,1
2022-12-16T23:06:56.181Z,99
2022-12-16T23:16:56.466Z,99
2022-12-16T23:26:54.727Z,99
2022-12-16T23:36:54.668Z,99
2022-12-16T23:46:54.780Z,99
2022-12-16T23:56:54.559Z,99
